Phelps, Kentucky
Current Conditions -  °F | °C
As of 9:35 AM on Tuesday 21 Oct 2014 (Local Time) from KPBX Reporting Station
Overcast Overcast  
Wind Chill: 51°   Ceiling: 900
Heat Index: 51°   Visibility: 10mi
Dew Point: 49°   Wind: 6mph
Humidity: 92%   Direction: 240°WSW
Pressure: 29.98"   Gusts: NA
Location:  37.51°N, 82.16°W
Report Text: KPBX 211335Z AUTO 24005KT 10SM OVC009 11/09 A2998 RMK AO2 T01050092
Loading
Personal Weather Stations






























Interactive Weather Map
Tropical Storm Tracking
New forecast layout! Learn more

10-Day Weather Forecast

Advertisements
Track Severe Weather on mobile